Airfield :
LOGIN :

Register | Disclaimer

   EN    FR    IT 

 










Legend :    VFR   Marginal VFR   IFR   Intensive IFR   Very Intensive IFR
Visi :
Ceiling :
>= 8 km
>= 3000ft
5 to 8 km
1000 to 3000 ft
1500m to 5 km
500 to 1000 ft
800 to 1500m
200 to 500 ft
< 800m
< 200 ft
Symbols :   Thunderstorms  Fog  Heavy snow  Heavy precipitations  Wind > 20 kt
SIGMETs :     Misc.  Thunderstorms  Icing  Turbulence  Mountain Waves  Volcanic Ashes






- Airport Elevation : 157 ft
- IATA code : LIL


LFQQ - Lille Lesquin

CURRENT METAR :
  • 201100Z AUTO 19020KT 9999 BKN025 BKN032 BKN049 10/06 Q1014 BECMG 21020G35KT

EXPIRED METARs :
  • 201030Z AUTO 20018KT 9999 BKN022 BKN028 OVC033 10/06 Q1014 BECMG 21020G35KT
  • 201000Z AUTO 19018KT 9999 BKN024 BKN032 OVC043 09/06 Q1015 BECMG 21020G35KT
  • 200930Z AUTO 19018KT 9999 BKN019 BKN026 BKN039 09/06 Q1015 BECMG 21020G35KT
  • 200900Z AUTO 19018KT 9999 FEW019 SCT024 BKN029 08/06 Q1015 BECMG 21020G35KT
  • 200830Z AUTO 19018KT 9999 SCT018 OVC025 08/06 Q1015 BECMG 21020G35KT

TAF TAF LFQQ
Valid from the 20 at 06:00 until the 21 at 12:00 UTC


200500Z 2006/2112 21015G25KT 9999 SCT013 BKN035
TEMPO 2006/2009 RA BKN013
BECMG 2009/2011 21020G35KT
TEMPO 2016/2018 21020G45KT 4000 RA BKN013
FM201800 28020G35KT 4000 RA BKN020
BECMG 2018/2021 28012KT 9999 NSW
BECMG 2102/2104 22008KT
ATIS : +33 3 20 16 19 54



MET'MAP, your aeronautical weather chart ! - Copyright ORBIFLY December 2007 - Disclaimer

ORBIFLY MET'MAP TEAM :

Programming & Development : Alexandra Zaïnal
Concept & original design : Baudouin d'Aumeries
Assistance for programming : Marc-Olivier Méhu
Technical & hardware support : Manuel Goepfert

Contact : metmap@orbifly.com




SOURCES & CREDITS :

   NOAA